Time;durP1;ratioP1;P1;durP2;ratioP2;P2;SDS_P1;SDS_P2;PMS_P1;PMS_P2;Temp;Humidity;BMP_temperature;BMP_pressure;BME280_temperature;BME280_humidity;BME280_pressure;Samples;Min_cycle;Max_cycle;Signal;HPM_P1;HPM_P2
2024/03/26 00:00:01;;;;;;;14.63;4.53;;;;;;;3.48;63.44;93515.25;5103713;28;20072;-79
2024/03/26 00:02:26;;;;;;;11.10;4.82;;;;;;;3.41;63.79;93520.81;5104285;28;20024;-81
2024/03/26 00:04:52;;;;;;;9.45;4.85;;;;;;;3.42;64.00;93522.41;5085709;28;20230;-80
2024/03/26 00:07:18;;;;;;;15.73;6.13;;;;;;;3.48;64.10;93527.63;5104081;28;20031;-79
2024/03/26 00:09:44;;;;;;;12.27;5.13;;;;;;;3.42;64.33;93526.91;5103906;28;20079;-79
2024/03/26 00:12:10;;;;;;;7.80;3.90;;;;;;;3.42;64.11;93526.91;5103705;28;20340;-79
2024/03/26 00:14:35;;;;;;;10.18;4.53;;;;;;;3.41;64.26;93526.09;5103565;28;20046;-80
2024/03/26 00:17:01;;;;;;;11.93;3.92;;;;;;;3.39;64.22;93528.22;5103641;28;20225;-79
2024/03/26 00:19:27;;;;;;;7.75;4.40;;;;;;;3.39;64.12;93530.84;5085629;28;20222;-79
2024/03/26 00:21:53;;;;;;;7.68;3.65;;;;;;;3.40;64.64;93527.16;5085454;28;20028;-80
2024/03/26 00:24:18;;;;;;;7.35;3.63;;;;;;;3.43;64.76;93523.19;5103459;28;20035;-79
2024/03/26 00:26:44;;;;;;;9.48;4.60;;;;;;;3.42;64.81;93514.50;5103553;28;20023;-80
2024/03/26 00:29:09;;;;;;;13.43;4.47;;;;;;;3.41;65.16;93520.03;5102581;28;20089;-80
2024/03/26 00:31:34;;;;;;;10.35;4.50;;;;;;;3.39;65.06;93517.66;5103846;28;20230;-80
2024/03/26 00:34:00;;;;;;;12.10;5.22;;;;;;;3.38;65.01;93518.75;5085495;28;20048;-80
2024/03/26 00:36:30;;;;;;;10.57;4.72;;;;;;;3.33;65.07;93518.78;5085401;28;20024;-80
2024/03/26 00:38:56;;;;;;;10.68;4.90;;;;;;;3.26;65.25;93512.25;5103400;28;20031;-80
2024/03/26 00:41:21;;;;;;;10.98;4.53;;;;;;;3.26;65.45;93507.78;5103330;28;20261;-79
2024/03/26 00:43:47;;;;;;;10.77;4.68;;;;;;;3.26;65.45;93507.78;5103273;28;20061;-79
2024/03/26 00:46:12;;;;;;;10.88;4.50;;;;;;;3.19;65.34;93512.56;5103509;28;20028;-80
2024/03/26 00:48:37;;;;;;;8.82;4.05;;;;;;;3.18;64.98;93511.78;5103431;28;20085;-80
2024/03/26 00:51:03;;;;;;;6.93;3.95;;;;;;;3.15;64.93;93509.69;5103419;28;20028;-79
2024/03/26 00:53:29;;;;;;;9.57;4.30;;;;;;;3.17;64.76;93517.31;5103323;28;20047;-78
2024/03/26 00:55:54;;;;;;;8.73;4.05;;;;;;;3.19;64.84;93523.88;5103231;28;20024;-78
2024/03/26 00:58:20;;;;;;;12.23;4.05;;;;;;;3.14;64.54;93513.41;5103117;28;20929;-79
2024/03/26 01:00:45;;;;;;;11.40;4.20;;;;;;;3.15;64.52;93507.06;5103190;28;20207;-79
2024/03/26 01:03:11;;;;;;;8.35;4.35;;;;;;;3.13;64.75;93505.75;5104066;28;20031;-79
2024/03/26 01:05:36;;;;;;;11.32;4.95;;;;;;;3.11;64.78;93511.28;5103759;28;20233;-80
2024/03/26 01:08:02;;;;;;;10.02;4.28;;;;;;;3.10;64.98;93503.69;5103662;28;20027;-80
2024/03/26 01:10:27;;;;;;;13.02;4.75;;;;;;;3.06;64.94;93495.56;5103386;28;20020;-79
2024/03/26 01:12:53;;;;;;;13.10;5.03;;;;;;;3.04;65.04;93494.25;5103410;28;20061;-79
2024/03/26 01:15:18;;;;;;;13.18;4.38;;;;;;;3.07;65.27;93499.75;5103266;28;20012;-80
2024/03/26 01:17:44;;;;;;;14.30;5.88;;;;;;;3.06;65.37;93500.81;5085903;28;20046;-80
2024/03/26 01:20:10;;;;;;;8.50;4.53;;;;;;;3.05;65.57;93506.34;5103548;28;20055;-80
2024/03/26 01:22:36;;;;;;;11.82;5.13;;;;;;;3.03;65.65;93511.09;5103990;28;20039;-80
2024/03/26 01:25:01;;;;;;;11.50;4.95;;;;;;;3.03;65.41;93513.75;5103654;28;20016;-80
2024/03/26 01:27:26;;;;;;;8.48;3.60;;;;;;;3.01;65.63;93509.53;5104080;28;20103;-82
2024/03/26 01:29:52;;;;;;;11.98;4.30;;;;;;;2.90;65.96;93521.19;5105555;28;20005;-81
2024/03/26 01:32:17;;;;;;;9.23;4.10;;;;;;;2.91;66.25;93529.88;5103658;28;20046;-81
2024/03/26 01:34:43;;;;;;;14.27;4.65;;;;;;;2.87;66.37;93528.84;5103506;28;20098;-81
2024/03/26 01:37:08;;;;;;;9.77;4.38;;;;;;;2.81;66.12;93526.25;5103569;28;20091;-80
2024/03/26 01:39:33;;;;;;;11.40;4.30;;;;;;;2.80;65.96;93523.88;5103733;28;20031;-81
2024/03/26 01:41:59;;;;;;;10.25;4.53;;;;;;;2.78;66.15;93518.09;5107081;28;20351;-81
2024/03/26 01:44:24;;;;;;;10.93;4.10;;;;;;;2.76;66.32;93525.50;5107471;28;20054;-81
2024/03/26 01:46:50;;;;;;;9.20;4.60;;;;;;;2.75;65.84;93524.72;5107415;28;20028;-81
2024/03/26 01:49:16;;;;;;;10.05;4.47;;;;;;;2.71;65.62;93531.56;5107084;28;20032;-80
2024/03/26 01:51:44;;;;;;;12.35;4.40;;;;;;;2.70;65.54;93526.56;5106928;28;20052;-80
2024/03/26 01:54:10;;;;;;;9.98;4.03;;;;;;;2.72;65.68;93521.81;5106886;28;20253;-80
2024/03/26 01:56:38;;;;;;;8.60;3.92;;;;;;;2.70;65.67;93516.03;5106835;28;20062;-81
2024/03/26 01:59:04;;;;;;;8.73;3.72;;;;;;;2.66;65.58;93518.44;5106972;28;20032;-81
2024/03/26 02:01:30;;;;;;;10.20;4.55;;;;;;;2.63;65.69;93499.78;5106743;28;20024;-80
2024/03/26 02:03:56;;;;;;;12.75;5.25;;;;;;;2.58;65.97;93511.88;5106991;28;20026;-80
2024/03/26 02:06:22;;;;;;;10.32;5.00;;;;;;;2.58;65.99;93521.63;5106713;28;20311;-80
2024/03/26 02:08:47;;;;;;;11.75;5.00;;;;;;;2.58;66.01;93505.84;5106791;28;20314;-79
2024/03/26 02:11:13;;;;;;;11.32;5.50;;;;;;;2.51;65.99;93500.09;5106820;28;20023;-80
2024/03/26 02:13:39;;;;;;;14.10;5.60;;;;;;;2.48;65.91;93509.31;5106573;28;20024;-79
2024/03/26 02:16:05;;;;;;;15.70;5.07;;;;;;;2.49;65.69;93510.91;5106968;28;20016;-79
2024/03/26 02:18:30;;;;;;;11.60;5.15;;;;;;;2.45;65.73;93511.72;5106379;28;20024;-79
2024/03/26 02:20:55;;;;;;;8.73;3.85;;;;;;;2.48;65.75;93514.56;5106617;28;20062;-79
2024/03/26 02:23:21;;;;;;;10.25;4.28;;;;;;;2.47;65.68;93523.53;5106065;28;20200;-79
2024/03/26 02:25:47;;;;;;;9.85;4.20;;;;;;;2.45;65.89;93523.00;5106545;28;20023;-79
2024/03/26 02:28:12;;;;;;;9.52;4.95;;;;;;;2.48;65.57;93519.81;5106371;28;20023;-78
2024/03/26 02:30:38;;;;;;;11.93;4.80;;;;;;;2.47;65.90;93518.28;5106343;28;20379;-78
2024/03/26 02:33:03;;;;;;;10.30;4.70;;;;;;;2.46;65.98;93515.91;5106035;28;20020;-80
2024/03/26 02:35:29;;;;;;;10.23;4.38;;;;;;;2.44;65.89;93524.06;5105978;28;20069;-78
2024/03/26 02:37:54;;;;;;;8.27;4.03;;;;;;;2.44;65.87;93518.00;5105921;28;20012;-78
2024/03/26 02:40:20;;;;;;;9.98;4.43;;;;;;;2.44;65.58;93518.78;5105947;28;20016;-78
2024/03/26 02:42:47;;;;;;;10.63;4.30;;;;;;;2.45;65.27;93514.34;5106239;28;20144;-78
2024/03/26 02:45:13;;;;;;;11.40;5.35;;;;;;;2.45;65.29;93519.59;5106028;28;20023;-78
2024/03/26 02:47:38;;;;;;;10.38;4.15;;;;;;;2.44;65.26;93508.28;5105768;28;20016;-78
2024/03/26 02:50:04;;;;;;;12.27;4.03;;;;;;;2.48;65.29;93519.81;5105951;28;20012;-78
2024/03/26 02:52:29;;;;;;;12.18;4.82;;;;;;;2.50;65.28;93525.59;5104579;28;20028;-78
2024/03/26 02:54:55;;;;;;;16.42;4.38;;;;;;;2.45;65.34;93515.13;5105532;28;20026;-79
2024/03/26 02:57:20;;;;;;;7.85;3.42;;;;;;;2.45;65.42;93514.34;5105575;28;20040;-77
2024/03/26 02:59:45;;;;;;;12.70;3.78;;;;;;;2.46;65.62;93531.69;5106315;28;20368;-78
2024/03/26 03:02:11;;;;;;;12.10;3.63;;;;;;;2.43;65.74;93519.88;5106031;28;20024;-78
2024/03/26 03:04:36;;;;;;;8.50;3.63;;;;;;;2.38;66.05;93533.84;5106102;28;20027;-78
2024/03/26 03:07:02;;;;;;;9.05;4.05;;;;;;;2.36;66.08;93527.25;5087227;28;20050;-78
2024/03/26 03:09:27;;;;;;;8.98;3.97;;;;;;;2.36;65.76;93530.69;5105433;28;20015;-79
2024/03/26 03:11:52;;;;;;;16.35;4.18;;;;;;;2.35;66.19;93536.22;5087401;28;20222;-80
2024/03/26 03:14:18;;;;;;;10.88;3.08;;;;;;;2.34;66.27;93532.81;5105283;28;20091;-78
2024/03/26 03:16:43;;;;;;;7.82;3.25;;;;;;;2.38;66.38;93541.72;5104920;28;20016;-79
2024/03/26 03:19:09;;;;;;;8.20;2.92;;;;;;;2.46;66.22;93547.47;5104731;28;20091;-78
2024/03/26 03:21:34;;;;;;;5.90;2.80;;;;;;;2.45;66.41;93551.94;5104760;28;20019;-78
2024/03/26 03:23:59;;;;;;;5.25;2.72;;;;;;;2.48;66.24;93546.13;5104358;28;20039;-78
2024/03/26 03:26:25;;;;;;;6.25;3.22;;;;;;;2.46;66.30;93552.72;5104536;28;20020;-79
2024/03/26 03:28:50;;;;;;;6.90;2.53;;;;;;;2.48;66.20;93564.56;5104500;28;20310;-79
2024/03/26 03:31:16;;;;;;;4.35;2.47;;;;;;;2.52;66.36;93555.06;5086593;28;20211;-79
2024/03/26 03:33:41;;;;;;;4.53;2.38;;;;;;;2.47;66.11;93567.47;5105089;28;20035;-79
2024/03/26 03:36:07;;;;;;;7.45;2.83;;;;;;;2.51;66.44;93576.41;5104568;28;20024;-80
2024/03/26 03:38:32;;;;;;;4.93;2.50;;;;;;;2.49;66.53;93568.00;5104091;28;20016;-79
2024/03/26 03:40:57;;;;;;;6.20;2.97;;;;;;;2.46;66.48;93564.03;5104429;28;20338;-79
2024/03/26 03:43:23;;;;;;;4.50;2.50;;;;;;;2.46;66.69;93564.03;5104544;28;20019;-78
2024/03/26 03:45:48;;;;;;;4.65;2.20;;;;;;;2.42;66.77;93552.47;5104234;28;20012;-79
2024/03/26 03:48:14;;;;;;;4.80;2.50;;;;;;;2.39;66.72;93551.19;5104334;28;20019;-79
2024/03/26 03:50:39;;;;;;;3.33;1.70;;;;;;;2.39;66.71;93558.28;5104710;28;20024;-80
2024/03/26 03:53:04;;;;;;;4.88;1.92;;;;;;;2.38;66.85;93561.97;5104251;28;20023;-80
2024/03/26 03:55:30;;;;;;;5.88;2.88;;;;;;;2.36;66.96;93559.63;5086107;28;20099;-79
2024/03/26 03:57:56;;;;;;;5.50;2.10;;;;;;;2.33;66.79;93554.88;5103747;28;20036;-78
2024/03/26 04:00:21;;;;;;;6.82;2.30;;;;;;;2.31;66.72;93566.72;5103854;28;20016;-78
2024/03/26 04:02:47;;;;;;;5.13;2.30;;;;;;;2.28;66.80;93570.69;5104026;28;20057;-78
2024/03/26 04:05:12;;;;;;;6.28;2.40;;;;;;;2.17;67.23;93575.19;5104029;28;20035;-78
2024/03/26 04:07:38;;;;;;;7.57;2.80;;;;;;;2.05;67.79;93572.06;5103716;28;20030;-78
2024/03/26 04:10:04;;;;;;;5.55;2.50;;;;;;;2.08;67.80;93574.16;5103881;28;20023;-78
2024/03/26 04:12:29;;;;;;;9.77;3.55;;;;;;;2.08;67.97;93579.41;5103854;28;20028;-78
2024/03/26 04:14:55;;;;;;;9.57;3.75;;;;;;;2.10;67.94;93587.81;5104039;28;20038;-78
2024/03/26 04:17:20;;;;;;;9.02;3.88;;;;;;;2.09;67.96;93588.88;5103870;28;20091;-78
2024/03/26 04:19:46;;;;;;;8.75;3.47;;;;;;;2.12;68.13;93585.72;5104113;28;20095;-79
2024/03/26 04:22:11;;;;;;;6.80;3.05;;;;;;;2.12;68.20;93593.59;5104200;28;20333;-79
2024/03/26 04:24:37;;;;;;;8.15;3.60;;;;;;;2.13;68.23;93603.06;5103971;28;20027;-80
2024/03/26 04:27:02;;;;;;;7.53;3.25;;;;;;;2.17;68.03;93598.06;5104193;28;20318;-79
2024/03/26 04:29:28;;;;;;;9.38;2.92;;;;;;;2.18;68.28;93621.47;5104064;28;20052;-79
2024/03/26 04:31:53;;;;;;;4.13;2.50;;;;;;;2.15;67.98;93615.94;5104229;28;20338;-79
2024/03/26 04:34:19;;;;;;;5.28;2.35;;;;;;;2.19;68.01;93624.88;5104242;28;20085;-78
2024/03/26 04:36:45;;;;;;;6.70;2.58;;;;;;;2.21;67.65;93628.03;5103812;28;20028;-78
2024/03/26 04:39:11;;;;;;;5.60;2.83;;;;;;;2.23;67.58;93625.13;5104109;28;20265;-79
2024/03/26 04:41:37;;;;;;;10.10;4.03;;;;;;;2.29;67.39;93626.69;5103661;28;20059;-79
2024/03/26 04:44:05;;;;;;;8.15;3.33;;;;;;;2.29;67.54;93624.06;5104213;28;20066;-79
2024/03/26 04:46:30;;;;;;;6.30;3.45;;;;;;;2.32;67.83;93626.16;5104016;28;20302;-79
2024/03/26 04:48:56;;;;;;;8.38;3.55;;;;;;;2.40;67.41;93613.25;5104126;28;20087;-79
2024/03/26 04:51:22;;;;;;;15.68;5.50;;;;;;;2.43;67.48;93611.94;5104306;28;20080;-79
2024/03/26 04:53:48;;;;;;;14.57;5.40;;;;;;;2.49;67.82;93615.34;5104350;28;20036;-78
2024/03/26 04:56:14;;;;;;;17.92;7.03;;;;;;;2.54;68.17;93602.16;5103510;28;20113;-78
2024/03/26 04:58:40;;;;;;;11.63;6.00;;;;;;;2.59;68.47;93600.31;5103275;28;20036;-77
2024/03/26 05:01:05;;;;;;;16.52;6.18;;;;;;;2.66;68.38;93601.84;5103320;28;20046;-79
2024/03/26 05:03:31;;;;;;;13.02;6.03;;;;;;;2.70;68.53;93597.63;5103460;28;20020;-79
2024/03/26 05:05:56;;;;;;;15.82;6.72;;;;;;;2.78;68.55;93592.59;5103225;28;20256;-79
2024/03/26 05:08:22;;;;;;;16.17;6.93;;;;;;;2.85;68.43;93608.09;5103632;28;20016;-79
2024/03/26 05:10:47;;;;;;;21.63;7.53;;;;;;;2.92;68.29;93592.78;5103517;28;20045;-79
2024/03/26 05:13:13;;;;;;;16.60;6.90;;;;;;;2.99;68.08;93593.28;5103171;28;20099;-78
2024/03/26 05:15:39;;;;;;;23.85;7.63;;;;;;;3.04;67.90;93599.59;5105707;28;20090;-79
2024/03/26 05:18:04;;;;;;;21.83;6.82;;;;;;;3.09;67.44;93587.16;5107596;28;20046;-79
2024/03/26 05:20:30;;;;;;;19.33;7.07;;;;;;;3.09;67.26;93587.16;5107135;28;20058;-80
2024/03/26 05:22:55;;;;;;;16.67;7.68;;;;;;;3.11;67.23;93585.03;5107005;28;20043;-79
2024/03/26 05:25:20;;;;;;;20.90;7.43;;;;;;;3.17;66.90;93593.69;5106757;28;20214;-79
2024/03/26 05:27:46;;;;;;;17.08;7.10;;;;;;;3.19;67.05;93599.47;5106526;28;20036;-79
2024/03/26 05:30:14;;;;;;;21.30;8.55;;;;;;;3.15;67.31;93591.31;5106749;28;20099;-79
2024/03/26 05:32:40;;;;;;;21.98;8.13;;;;;;;3.27;67.20;93596.25;5106794;28;20019;-79
2024/03/26 05:35:05;;;;;;;17.92;8.70;;;;;;;3.32;67.14;93590.19;5106532;28;20027;-79
2024/03/26 05:37:31;;;;;;;22.60;8.13;;;;;;;3.37;67.07;93580.38;5107078;28;20036;-78
2024/03/26 05:39:56;;;;;;;26.73;9.43;;;;;;;3.44;67.19;93588.00;5106484;28;20046;-79
2024/03/26 05:42:21;;;;;;;27.55;9.23;;;;;;;3.48;67.10;93593.50;5106993;28;20024;-79
2024/03/26 05:44:47;;;;;;;22.50;8.52;;;;;;;3.47;67.26;93597.19;5106540;28;20015;-79
2024/03/26 05:47:12;;;;;;;19.52;8.73;;;;;;;3.47;67.22;93607.75;5106601;28;20318;-79
2024/03/26 05:49:37;;;;;;;25.23;9.65;;;;;;;3.44;67.18;93603.00;5106230;28;20016;-79
2024/03/26 05:52:04;;;;;;;25.70;10.02;;;;;;;3.39;67.42;93601.97;5106339;28;20070;-79
2024/03/26 05:54:29;;;;;;;22.73;9.32;;;;;;;3.47;67.44;93586.66;5106154;28;20062;-79
2024/03/26 05:56:54;;;;;;;21.13;9.38;;;;;;;3.53;67.22;93588.19;5106126;28;20056;-79
2024/03/26 05:59:20;;;;;;;22.42;8.75;;;;;;;3.48;67.43;93588.22;5106285;28;20024;-79
2024/03/26 06:01:45;;;;;;;21.67;9.27;;;;;;;3.56;67.83;93590.28;5106258;28;20311;-78
2024/03/26 06:04:11;;;;;;;27.23;10.25;;;;;;;3.64;67.56;93602.84;5106134;28;20051;-79
2024/03/26 06:06:36;;;;;;;26.08;10.65;;;;;;;3.71;67.48;93597.28;5106011;28;20027;-79
2024/03/26 06:09:02;;;;;;;23.05;9.52;;;;;;;3.79;67.33;93594.06;5105801;28;20329;-78
2024/03/26 06:11:27;;;;;;;21.98;8.63;;;;;;;3.87;67.34;93600.56;5106462;28;20043;-78
2024/03/26 06:13:52;;;;;;;28.95;10.00;;;;;;;3.98;67.29;93610.75;5106352;28;20023;-79
2024/03/26 06:16:19;;;;;;;26.80;9.48;;;;;;;4.11;67.10;93600.63;5106489;28;20083;-78
2024/03/26 06:18:44;;;;;;;25.02;9.65;;;;;;;4.30;66.49;93598.06;5106090;28;20093;-79
2024/03/26 06:21:10;;;;;;;25.33;10.10;;;;;;;4.46;66.49;93598.69;5106018;28;20310;-79
2024/03/26 06:23:35;;;;;;;30.83;9.73;;;;;;;4.63;65.86;93602.44;5105644;28;20016;-80
2024/03/26 06:26:00;;;;;;;21.95;9.43;;;;;;;4.76;65.65;93608.91;5105752;28;20024;-80
2024/03/26 06:28:26;;;;;;;23.45;9.75;;;;;;;4.92;64.82;93614.78;5105868;28;20023;-80
2024/03/26 06:30:52;;;;;;;21.35;8.48;;;;;;;4.94;64.96;93614.50;5105780;28;20015;-79
2024/03/26 06:33:17;;;;;;;22.25;10.02;;;;;;;5.06;64.68;93604.31;5106015;28;20015;-80
2024/03/26 06:35:43;;;;;;;20.88;8.90;;;;;;;5.22;64.43;93623.38;5105728;28;20023;-80
2024/03/26 06:38:08;;;;;;;22.70;9.05;;;;;;;5.37;63.90;93620.56;5105875;28;20011;-80
2024/03/26 06:40:35;;;;;;;19.08;9.35;;;;;;;5.54;62.87;93619.25;5087392;28;20103;-79
2024/03/26 06:43:01;;;;;;;25.30;9.30;;;;;;;5.70;62.17;93628.53;5105320;28;20020;-79
2024/03/26 06:45:26;;;;;;;30.75;8.32;;;;;;;5.70;60.26;93628.53;5105539;28;20105;-79
2024/03/26 06:47:52;;;;;;;19.63;7.78;;;;;;;5.91;59.82;93623.72;5105688;28;20217;-79
2024/03/26 06:50:18;;;;;;;15.50;7.63;;;;;;;6.00;59.07;93622.00;5105600;28;20015;-80
2024/03/26 06:52:47;;;;;;;19.73;7.82;;;;;;;6.11;58.36;93617.34;5105537;28;20020;-79
2024/03/26 06:55:13;;;;;;;18.73;8.80;;;;;;;6.15;58.07;93620.97;5105471;28;20020;-80
2024/03/26 06:57:39;;;;;;;21.58;7.90;;;;;;;6.23;58.23;93616.88;5105180;28;20048;-79
2024/03/26 07:00:08;;;;;;;18.13;6.85;;;;;;;6.22;57.26;93625.88;5105137;28;20083;-79
2024/03/26 07:02:33;;;;;;;15.07;6.78;;;;;;;6.33;57.43;93624.63;5104901;28;20031;-79
2024/03/26 07:04:59;;;;;;;19.13;7.07;;;;;;;6.51;56.87;93614.25;5104606;28;20047;-79
2024/03/26 07:07:24;;;;;;;22.08;6.70;;;;;;;6.69;56.83;93607.31;5104690;28;20047;-79
2024/03/26 07:09:50;;;;;;;18.42;6.85;;;;;;;6.97;55.87;93605.44;5104792;28;20223;-80
2024/03/26 07:12:15;;;;;;;12.82;6.72;;;;;;;7.18;55.62;93603.13;5104804;28;20291;-79
2024/03/26 07:14:41;;;;;;;22.90;8.80;;;;;;;7.35;55.39;93608.59;5104407;28;20050;-79
2024/03/26 07:17:07;;;;;;;19.48;7.55;;;;;;;7.52;54.80;93609.84;5104333;28;20024;-78
2024/03/26 07:19:33;;;;;;;22.50;8.30;;;;;;;7.62;53.73;93599.00;5104907;28;20095;-82
2024/03/26 07:21:58;;;;;;;15.70;8.23;;;;;;;7.71;54.05;93597.19;5104533;28;20060;-81
2024/03/26 07:24:25;;;;;;;16.50;6.10;;;;;;;7.88;52.54;93591.22;5106418;28;20020;-84
2024/03/26 07:26:50;;;;;;;13.48;6.72;;;;;;;7.99;51.87;93594.41;5094494;28;20016;-91
2024/03/26 07:29:16;;;;;;;14.98;7.03;;;;;;;8.10;51.18;93593.09;5114164;28;20095;-90
2024/03/26 07:31:41;;;;;;;23.95;7.05;;;;;;;8.26;51.10;93592.69;5113340;28;20012;-90
2024/03/26 07:34:07;;;;;;;13.10;5.95;;;;;;;8.36;50.27;93585.25;5095097;28;20027;-90
2024/03/26 07:36:32;;;;;;;11.40;5.82;;;;;;;8.49;50.04;93593.44;5112453;28;20004;-90
2024/03/26 07:38:58;;;;;;;14.88;6.00;;;;;;;8.62;49.05;93598.69;5105576;28;20258;-89
2024/03/26 07:41:23;;;;;;;14.80;4.38;;;;;;;8.79;48.14;93586.53;5104659;28;20023;-82
2024/03/26 07:43:49;;;;;;;10.68;4.07;;;;;;;8.91;47.63;93567.34;5103968;28;20190;-85
2024/03/26 07:46:14;;;;;;;11.25;4.20;;;;;;;9.05;46.41;93578.66;5104350;28;20016;-83
2024/03/26 07:48:40;;;;;;;16.08;4.93;;;;;;;9.22;44.52;93577.91;5104513;28;20020;-84
2024/03/26 07:51:05;;;;;;;9.20;3.63;;;;;;;9.31;44.47;93572.59;5104442;28;20043;-86
2024/03/26 07:53:32;;;;;;;16.98;3.20;;;;;;;9.41;44.24;93575.72;5104219;28;20015;-85
2024/03/26 07:55:58;;;;;;;30.00;5.07;;;;;;;9.51;44.11;93574.63;5104253;28;20091;-86
2024/03/26 07:58:23;;;;;;;13.88;4.07;;;;;;;9.62;44.04;93570.56;5104239;28;20055;-85
2024/03/26 08:00:50;;;;;;;12.77;4.03;;;;;;;9.59;43.26;93578.41;5104896;28;20028;-85
2024/03/26 08:03:15;;;;;;;15.13;3.88;;;;;;;9.70;42.96;93581.53;5105593;28;20269;-86
2024/03/26 08:05:41;;;;;;;16.45;3.40;;;;;;;9.76;42.71;93565.06;5104794;28;20027;-87
2024/03/26 08:08:06;;;;;;;9.82;3.15;;;;;;;9.68;41.23;93573.06;5106885;28;20311;-89
2024/03/26 08:10:35;;;;;;;8.07;3.08;;;;;;;9.72;42.04;93572.13;5107171;28;20041;-88
2024/03/26 08:13:00;;;;;;;10.90;3.15;;;;;;;9.79;42.27;93564.47;5088341;28;20028;-90
2024/03/26 08:15:26;;;;;;;18.80;3.72;;;;;;;9.96;43.09;93568.19;5088550;28;20028;-88
2024/03/26 08:17:51;;;;;;;9.68;3.53;;;;;;;10.09;43.04;93575.22;5104917;28;20103;-88
2024/03/26 08:20:17;;;;;;;11.63;3.33;;;;;;;10.07;41.25;93566.75;5103554;28;20031;-83
2024/03/26 08:22:42;;;;;;;11.70;3.92;;;;;;;10.02;41.23;93570.38;5103714;28;20279;-84
2024/03/26 08:25:08;;;;;;;9.38;3.25;;;;;;;10.02;40.86;93569.59;5103324;28;20026;-90
2024/03/26 08:27:34;;;;;;;10.32;3.55;;;;;;;10.13;40.15;93568.16;5103287;28;20016;-83
2024/03/26 08:29:59;;;;;;;10.07;4.32;;;;;;;10.15;40.08;93563.28;5103363;28;20016;-79
2024/03/26 08:32:25;;;;;;;10.00;3.88;;;;;;;10.09;40.78;93577.88;5103666;28;20098;-82
2024/03/26 08:34:51;;;;;;;28.55;4.88;;;;;;;10.22;40.24;93582.25;5103223;28;20019;-79
2024/03/26 08:37:16;;;;;;;10.05;3.67;;;;;;;10.31;40.54;93574.25;5103179;28;20050;-79
2024/03/26 08:39:42;;;;;;;13.07;3.65;;;;;;;10.43;40.69;93589.59;5103002;28;20026;-79
2024/03/26 08:42:08;;;;;;;9.95;4.32;;;;;;;10.57;39.74;93581.41;5103157;28;20203;-79
2024/03/26 08:44:34;;;;;;;24.35;4.47;;;;;;;10.63;38.83;93580.88;5103018;28;20330;-79
2024/03/26 08:47:00;;;;;;;16.58;4.32;;;;;;;10.47;39.16;93581.75;5085216;28;20111;-80
2024/03/26 08:49:25;;;;;;;15.10;4.68;;;;;;;10.30;39.50;93583.34;5103501;28;20062;-81
2024/03/26 08:51:50;;;;;;;14.27;4.22;;;;;;;10.16;39.62;93572.09;5107506;28;20310;-80
2024/03/26 08:54:16;;;;;;;12.70;4.75;;;;;;;10.10;39.48;93578.69;5107237;28;20032;-79
2024/03/26 08:56:41;;;;;;;9.70;3.97;;;;;;;9.76;40.56;93570.41;5106998;28;20055;-81
2024/03/26 08:59:06;;;;;;;14.77;4.22;;;;;;;9.99;40.48;93567.56;5107106;28;20100;-80
2024/03/26 09:01:32;;;;;;;16.48;4.03;;;;;;;10.11;40.02;93569.56;5107007;28;20028;-80
2024/03/26 09:03:58;;;;;;;9.75;3.85;;;;;;;10.06;40.19;93567.88;5106888;28;20050;-80
2024/03/26 09:06:23;;;;;;;9.18;3.88;;;;;;;10.17;40.96;93561.09;5107002;28;20020;-79
2024/03/26 09:08:49;;;;;;;13.13;4.50;;;;;;;10.44;39.78;93561.81;5106969;28;20016;-83
2024/03/26 09:11:14;;;;;;;9.85;3.60;;;;;;;10.62;39.44;93573.22;5106895;28;20302;-78
2024/03/26 09:13:41;;;;;;;8.35;3.55;;;;;;;10.77;38.63;93574.59;5106822;28;20028;-78
2024/03/26 09:16:07;;;;;;;12.13;3.75;;;;;;;10.88;37.57;93581.09;5106681;28;20032;-80
2024/03/26 09:18:36;;;;;;;14.65;3.70;;;;;;;10.86;37.33;93571.88;5106724;28;20080;-80
2024/03/26 09:21:05;;;;;;;7.95;3.95;;;;;;;10.89;37.74;93576.53;5088693;28;20314;-80
2024/03/26 09:23:30;;;;;;;9.30;3.22;;;;;;;10.98;37.00;93567.41;5107026;28;20019;-78
2024/03/26 09:25:56;;;;;;;14.75;4.85;;;;;;;11.05;37.47;93558.88;5106995;28;20305;-79
2024/03/26 09:28:21;;;;;;;12.10;3.97;;;;;;;11.13;37.81;93549.28;5106826;28;20031;-80
2024/03/26 09:30:51;;;;;;;8.95;3.42;;;;;;;11.22;37.01;93542.00;5106810;28;20303;-78
2024/03/26 09:33:17;;;;;;;9.77;3.70;;;;;;;11.44;35.79;93544.34;5106737;28;20095;-79
2024/03/26 09:35:42;;;;;;;17.35;3.83;;;;;;;11.59;35.06;93544.88;5106781;28;20031;-80
2024/03/26 09:38:07;;;;;;;8.57;4.15;;;;;;;11.60;35.84;93536.56;5106543;28;20086;-79
2024/03/26 09:40:34;;;;;;;13.75;3.80;;;;;;;11.62;36.04;93531.66;5106404;28;20032;-80
2024/03/26 09:43:03;;;;;;;9.98;3.65;;;;;;;11.80;36.62;93540.28;5088406;28;20051;-80
2024/03/26 09:45:32;;;;;;;11.55;3.30;;;;;;;11.99;35.19;93531.06;5106405;28;20035;-80
2024/03/26 09:48:00;;;;;;;7.88;2.88;;;;;;;12.16;35.08;93525.53;5106496;28;20038;-80
2024/03/26 09:50:28;;;;;;;7.75;2.47;;;;;;;12.07;32.95;93524.84;5106477;28;20091;-80
2024/03/26 09:52:56;;;;;;;8.55;2.88;;;;;;;12.19;33.27;93521.41;5106672;28;20020;-80
2024/03/26 09:55:26;;;;;;;5.65;2.45;;;;;;;12.30;32.98;93517.19;5106448;28;20024;-79
2024/03/26 09:57:52;;;;;;;9.05;2.53;;;;;;;12.52;32.71;93505.31;5105899;28;20059;-80
2024/03/26 10:00:19;;;;;;;9.13;2.83;;;;;;;12.58;33.22;93503.97;5105919;28;20070;-80
2024/03/26 10:02:46;;;;;;;5.97;2.72;;;;;;;12.68;34.09;93521.47;5105943;28;20039;-78
2024/03/26 10:05:16;;;;;;;4.43;2.13;;;;;;;12.47;32.21;93518.13;5105726;28;20028;-78
2024/03/26 10:07:44;;;;;;;6.05;2.30;;;;;;;12.58;32.59;93505.88;5105863;28;20037;-78
2024/03/26 10:10:10;;;;;;;11.27;3.00;;;;;;;12.65;32.96;93514.13;5105826;28;20016;-77
2024/03/26 10:12:39;;;;;;;5.20;2.53;;;;;;;12.60;32.78;93514.34;5105877;28;20077;-78
2024/03/26 10:15:06;;;;;;;17.45;3.05;;;;;;;12.61;32.52;93511.31;5105535;28;20141;-78
2024/03/26 10:17:36;;;;;;;12.25;2.70;;;;;;;12.55;32.68;93504.63;5105589;28;20222;-78
2024/03/26 10:20:03;;;;;;;12.40;3.75;;;;;;;12.52;32.83;93499.97;5105608;28;20040;-82
2024/03/26 10:22:28;;;;;;;10.93;2.75;;;;;;;12.48;33.14;93501.75;5105817;28;20087;-82
2024/03/26 10:24:54;;;;;;;8.32;2.88;;;;;;;12.42;33.28;93501.19;5106231;28;20274;-82
2024/03/26 10:27:20;;;;;;;6.78;3.47;;;;;;;12.31;33.81;93515.31;5105508;28;20196;-81
2024/03/26 10:29:45;;;;;;;6.57;2.95;;;;;;;12.16;33.84;93504.16;5105416;28;20023;-82
2024/03/26 10:32:15;;;;;;;5.90;2.88;;;;;;;12.26;34.61;93508.28;5105480;28;20027;-80
2024/03/26 10:34:43;;;;;;;9.35;2.53;;;;;;;12.38;34.39;93499.50;5105568;28;20349;-78
2024/03/26 10:37:09;;;;;;;19.70;3.10;;;;;;;12.69;34.33;93492.84;5104009;28;20020;-79
2024/03/26 10:39:36;;;;;;;7.25;2.85;;;;;;;13.00;33.82;93486.91;5104905;28;20103;-79
2024/03/26 10:42:03;;;;;;;10.52;2.78;;;;;;;13.25;32.98;93482.31;5104507;28;20048;-78
2024/03/26 10:44:31;;;;;;;5.68;2.70;;;;;;;13.34;32.66;93498.25;5104354;28;20023;-79
2024/03/26 10:46:58;;;;;;;8.02;2.90;;;;;;;13.49;31.78;93486.81;5105495;28;20047;-79
2024/03/26 10:49:25;;;;;;;8.65;2.75;;;;;;;13.59;31.42;93489.00;5105330;28;20046;-79
2024/03/26 10:51:51;;;;;;;6.63;3.00;;;;;;;13.64;30.85;93471.94;5104056;28;20475;-78
2024/03/26 10:54:18;;;;;;;6.53;3.53;;;;;;;13.76;31.96;93481.78;5103489;28;20024;-79
2024/03/26 10:56:47;;;;;;;6.25;2.80;;;;;;;13.91;31.67;93481.06;5104055;28;20046;-79
2024/03/26 10:59:12;;;;;;;8.52;2.85;;;;;;;14.10;30.03;93488.44;5102820;28;20322;-79
2024/03/26 11:01:38;;;;;;;10.07;2.30;;;;;;;14.09;29.67;93475.41;5104190;28;20138;-79
2024/03/26 11:04:04;;;;;;;12.80;3.28;;;;;;;14.13;30.95;93482.41;5086560;28;20069;-78
2024/03/26 11:06:30;;;;;;;9.52;2.50;;;;;;;14.29;30.73;93473.56;5105074;28;20310;-79
2024/03/26 11:09:01;;;;;;;7.45;2.88;;;;;;;14.34;29.95;93459.94;5105087;28;20020;-79
2024/03/26 11:11:31;;;;;;;8.82;2.83;;;;;;;14.49;29.90;93453.81;5086821;28;20060;-79
2024/03/26 11:13:58;;;;;;;5.90;2.67;;;;;;;14.54;29.99;93453.53;5104264;28;20057;-78
2024/03/26 11:16:36;;;;;;;14.70;3.08;;;;;;;14.54;30.79;93450.06;5105080;28;20310;-79
2024/03/26 11:19:24;;;;;;;5.60;2.65;;;;;;;14.59;30.59;93445.25;5104822;28;20032;-79
2024/03/26 11:21:53;;;;;;;7.63;2.75;;;;;;;14.70;30.44;93445.50;5105178;28;20024;-79
2024/03/26 11:24:25;;;;;;;9.05;2.20;;;;;;;14.89;30.73;93439.38;5104892;28;20059;-79
2024/03/26 11:26:51;;;;;;;12.70;2.80;;;;;;;15.04;29.46;93438.59;5104771;28;20024;-79